Time;durP1;ratioP1;P1;durP2;ratioP2;P2;SDS_P1;SDS_P2;PMS_P1;PMS_P2;Temp;Humidity;BMP_temperature;BMP_pressure;BME280_temperature;BME280_humidity;BME280_pressure;Samples;Min_cycle;Max_cycle;Signal;HPM_P1;HPM_P2
2022/08/13 00:01:25;;;;;;;5.03;2.05;;;;;;;;;;5061057;28;20644;-65
2022/08/13 00:03:52;;;;;;;5.45;2.10;;;;;;;;;;5049701;28;20304;-65
2022/08/13 00:09:14;;;;;;;3.22;2.13;;;;;;;;;;5037780;28;20285;-65
2022/08/13 00:14:31;;;;;;;7.50;2.30;;;;;;;;;;5048842;28;20386;-65
2022/08/13 00:16:57;;;;;;;2.42;1.85;;;;;;;;;;5062293;28;20176;-65
2022/08/13 00:19:26;;;;;;;5.35;2.35;;;;;;;;;;5063473;28;20684;-65
2022/08/13 00:21:54;;;;;;;7.13;1.80;;;;;;;;;;5059976;28;20177;-65
2022/08/13 00:24:20;;;;;;;3.47;1.90;;;;;;;;;;5062063;28;20261;-65
2022/08/13 00:26:45;;;;;;;2.80;1.80;;;;;;;;;;5068320;28;20323;-65
2022/08/13 00:29:10;;;;;;;3.88;1.90;;;;;;;;;;5059963;28;20710;-65
2022/08/13 00:31:37;;;;;;;5.20;2.50;;;;;;;;;;5068909;28;20703;-65
2022/08/13 00:34:03;;;;;;;2.97;2.13;;;;;;;;;;5053770;28;20195;-65
2022/08/13 00:36:34;;;;;;;5.97;1.90;;;;;;;;;;5052876;28;20173;-65
2022/08/13 00:39:00;;;;;;;2.70;2.00;;;;;;;;;;5061271;28;20185;-65
2022/08/13 00:41:37;;;;;;;6.25;1.90;;;;;;;;;;5048551;28;20177;-65
2022/08/13 00:44:04;;;;;;;8.98;1.85;;;;;;;;;;5049191;28;20605;-65
2022/08/13 00:46:30;;;;;;;3.70;2.10;;;;;;;;;;5048471;28;20219;-65
2022/08/13 00:48:55;;;;;;;3.03;2.00;;;;;;;;;;5055250;28;20268;-65
2022/08/13 00:51:23;;;;;;;8.32;2.13;;;;;;;;;;5060961;28;20625;-65
2022/08/13 00:53:48;;;;;;;2.38;1.80;;;;;;;;;;5061899;28;20197;-65
2022/08/13 00:56:15;;;;;;;4.70;2.17;;;;;;;;;;5048919;28;20558;-65
2022/08/13 00:58:41;;;;;;;8.77;2.00;;;;;;;;;;5049250;28;20184;-65
2022/08/13 01:01:08;;;;;;;3.50;1.88;;;;;;;;;;5048829;28;20252;-65
2022/08/13 01:03:35;;;;;;;5.45;2.13;;;;;;;;;;5048221;28;20311;-65
2022/08/13 01:06:02;;;;;;;3.63;2.10;;;;;;;;;;5061940;28;20197;-65
2022/08/13 01:08:31;;;;;;;3.03;2.00;;;;;;;;;;5061809;28;20612;-65
2022/08/13 01:11:00;;;;;;;2.28;1.98;;;;;;;;;;5064458;28;20185;-65
2022/08/13 01:13:28;;;;;;;5.20;2.15;;;;;;;;;;5071889;28;20185;-65
2022/08/13 01:15:54;;;;;;;3.63;1.90;;;;;;;;;;5059830;28;20184;-65
2022/08/13 01:18:24;;;;;;;3.97;2.13;;;;;;;;;;5067814;28;20203;-65
2022/08/13 01:21:00;;;;;;;6.28;2.15;;;;;;;;;;5068416;28;20177;-65
2022/08/13 01:23:28;;;;;;;4.32;2.08;;;;;;;;;;5053403;28;20195;-65
2022/08/13 01:25:54;;;;;;;3.33;2.00;;;;;;;;;;5065647;28;20323;-65
2022/08/13 01:28:22;;;;;;;3.20;1.92;;;;;;;;;;5055538;28;20281;-65
2022/08/13 01:30:50;;;;;;;3.75;2.00;;;;;;;;;;5072447;28;20192;-65
2022/08/13 01:33:17;;;;;;;3.53;2.10;;;;;;;;;;5068257;28;20660;-65
2022/08/13 01:35:43;;;;;;;4.53;2.45;;;;;;;;;;5072377;28;20260;-65
2022/08/13 01:38:10;;;;;;;3.83;2.20;;;;;;;;;;5065135;28;20185;-65
2022/08/13 01:40:35;;;;;;;5.85;2.30;;;;;;;;;;5052171;28;20193;-65
2022/08/13 01:43:02;;;;;;;2.45;2.00;;;;;;;;;;5063526;28;20180;-65
2022/08/13 01:45:30;;;;;;;2.70;2.20;;;;;;;;;;5057523;28;20279;-65
2022/08/13 01:50:40;;;;;;;3.28;1.73;;;;;;;;;;5068475;28;20208;-65
2022/08/13 01:53:11;;;;;;;2.15;1.77;;;;;;;;;;5063740;28;20173;-65
2022/08/13 01:55:43;;;;;;;6.43;2.95;;;;;;;;;;5052655;28;20538;-65
2022/08/13 01:58:11;;;;;;;2.35;2.10;;;;;;;;;;5051695;28;20185;-65
2022/08/13 02:00:39;;;;;;;4.50;2.10;;;;;;;;;;5064630;28;20174;-65
2022/08/13 02:03:09;;;;;;;4.22;2.22;;;;;;;;;;5051861;28;20178;-65
2022/08/13 02:05:36;;;;;;;3.20;2.30;;;;;;;;;;5068249;28;20203;-65
2022/08/13 02:08:01;;;;;;;4.25;2.15;;;;;;;;;;5071224;28;20639;-65
2022/08/13 02:10:27;;;;;;;3.55;2.17;;;;;;;;;;5063855;28;20188;-65
2022/08/13 02:12:53;;;;;;;5.40;2.17;;;;;;;;;;5071228;28;20593;-65
2022/08/13 02:15:18;;;;;;;3.17;1.90;;;;;;;;;;5070304;28;20552;-65
2022/08/13 02:17:45;;;;;;;4.63;1.90;;;;;;;;;;5056443;28;20205;-65
2022/08/13 02:20:17;;;;;;;5.65;2.35;;;;;;;;;;5058631;28;20652;-65
2022/08/13 02:22:45;;;;;;;2.60;2.40;;;;;;;;;;5056064;28;20174;-65
2022/08/13 02:25:12;;;;;;;2.33;2.08;;;;;;;;;;5071122;28;20594;-65
2022/08/13 02:27:39;;;;;;;4.38;2.20;;;;;;;;;;5068729;28;20241;-65
2022/08/13 02:30:07;;;;;;;3.30;2.40;;;;;;;;;;5052948;28;20637;-65
2022/08/13 02:32:35;;;;;;;3.08;2.45;;;;;;;;;;5050508;28;20229;-65
2022/08/13 02:35:01;;;;;;;7.75;2.10;;;;;;;;;;5050841;28;20189;-65
2022/08/13 02:37:29;;;;;;;3.55;2.40;;;;;;;;;;5050844;28;20174;-65
2022/08/13 02:39:54;;;;;;;5.70;2.45;;;;;;;;;;5068125;28;20290;-65
2022/08/13 02:42:21;;;;;;;5.13;2.53;;;;;;;;;;5059749;28;20225;-65
2022/08/13 02:44:48;;;;;;;4.00;2.28;;;;;;;;;;5064284;28;20173;-65
2022/08/13 02:47:19;;;;;;;2.90;2.25;;;;;;;;;;5059446;28;20209;-65
2022/08/13 02:49:46;;;;;;;4.03;1.73;;;;;;;;;;5055924;28;20317;-65
2022/08/13 02:52:11;;;;;;;4.43;2.30;;;;;;;;;;5065973;28;20181;-65
2022/08/13 02:54:44;;;;;;;3.55;2.38;;;;;;;;;;5051396;28;20264;-65
2022/08/13 02:57:10;;;;;;;6.25;2.28;;;;;;;;;;5057305;28;20187;-65
2022/08/13 02:59:36;;;;;;;3.45;2.47;;;;;;;;;;5057319;28;20182;-65
2022/08/13 03:02:04;;;;;;;3.17;2.60;;;;;;;;;;5068242;28;20187;-65
2022/08/13 03:04:30;;;;;;;5.95;2.60;;;;;;;;;;5057508;28;20546;-65
2022/08/13 03:06:56;;;;;;;7.63;2.78;;;;;;;;;;5057957;28;20196;-65
2022/08/13 03:09:22;;;;;;;2.60;2.38;;;;;;;;;;5060658;28;20189;-65
2022/08/13 03:11:49;;;;;;;3.25;2.10;;;;;;;;;;5055349;28;20201;-65
2022/08/13 03:14:15;;;;;;;3.33;2.38;;;;;;;;;;5063399;28;20204;-65
2022/08/13 03:16:40;;;;;;;3.50;2.40;;;;;;;;;;5051672;28;20177;-65
2022/08/13 03:19:06;;;;;;;3.90;2.30;;;;;;;;;;5049372;28;20181;-65
2022/08/13 03:21:38;;;;;;;3.13;2.30;;;;;;;;;;5049704;28;20185;-65
2022/08/13 03:24:05;;;;;;;4.63;2.35;;;;;;;;;;5049713;28;20397;-65
2022/08/13 03:26:31;;;;;;;3.92;2.28;;;;;;;;;;5058460;28;20346;-65
2022/08/13 03:28:58;;;;;;;4.45;2.35;;;;;;;;;;5068590;28;20257;-65
2022/08/13 03:31:24;;;;;;;4.00;2.20;;;;;;;;;;5066900;28;20193;-65
2022/08/13 03:33:50;;;;;;;4.53;2.70;;;;;;;;;;5056368;28;20200;-65
2022/08/13 03:36:16;;;;;;;4.22;2.22;;;;;;;;;;5064329;28;20267;-65
2022/08/13 03:38:42;;;;;;;2.92;2.42;;;;;;;;;;5062037;28;20177;-65
2022/08/13 03:41:14;;;;;;;2.95;2.05;;;;;;;;;;5064334;28;20648;-65
2022/08/13 03:43:45;;;;;;;4.18;2.30;;;;;;;;;;5056906;28;20514;-65
2022/08/13 03:46:13;;;;;;;5.43;2.58;;;;;;;;;;5055713;28;20575;-65
2022/08/13 03:48:39;;;;;;;3.13;2.22;;;;;;;;;;5051445;28;20188;-66
2022/08/13 03:51:06;;;;;;;2.72;2.35;;;;;;;;;;5054697;28;20272;-65
2022/08/13 03:53:32;;;;;;;4.78;2.42;;;;;;;;;;5054511;28;20184;-65
2022/08/13 03:55:58;;;;;;;5.68;2.58;;;;;;;;;;5058388;28;20185;-65
2022/08/13 03:58:26;;;;;;;5.05;3.00;;;;;;;;;;5063486;28;20222;-65
2022/08/13 04:00:52;;;;;;;6.07;2.75;;;;;;;;;;5062830;28;20188;-65
2022/08/13 04:03:28;;;;;;;5.38;2.92;;;;;;;;;;5062082;28;20185;-65
2022/08/13 04:06:00;;;;;;;4.97;2.58;;;;;;;;;;5053674;28;20337;-65
2022/08/13 04:08:34;;;;;;;5.00;2.60;;;;;;;;;;5077835;28;20511;-65
2022/08/13 04:11:01;;;;;;;4.43;2.67;;;;;;;;;;5060634;28;20200;-65
2022/08/13 04:13:28;;;;;;;5.10;2.90;;;;;;;;;;5056938;28;20188;-65
2022/08/13 04:15:53;;;;;;;6.13;2.40;;;;;;;;;;5054215;28;20223;-65
2022/08/13 04:18:19;;;;;;;4.80;2.30;;;;;;;;;;5055532;28;20185;-65
2022/08/13 04:20:54;;;;;;;3.25;2.45;;;;;;;;;;5058982;28;20205;-65
2022/08/13 04:23:21;;;;;;;5.35;2.53;;;;;;;;;;5053882;28;20181;-65
2022/08/13 04:25:47;;;;;;;2.85;2.47;;;;;;;;;;5060811;28;20318;-65
2022/08/13 04:28:15;;;;;;;7.95;2.40;;;;;;;;;;5048123;28;20225;-65
2022/08/13 04:30:41;;;;;;;2.50;2.30;;;;;;;;;;5048053;28;20228;-65
2022/08/13 04:33:09;;;;;;;3.75;2.17;;;;;;;;;;5052036;28;20208;-65
2022/08/13 04:35:36;;;;;;;4.43;2.63;;;;;;;;;;5057458;28;20243;-65
2022/08/13 04:38:02;;;;;;;5.43;2.70;;;;;;;;;;5050288;28;20188;-65
2022/08/13 04:40:27;;;;;;;7.70;2.80;;;;;;;;;;5049315;28;20181;-65
2022/08/13 04:42:54;;;;;;;3.33;2.70;;;;;;;;;;5050432;28;20188;-65
2022/08/13 04:45:25;;;;;;;4.38;2.50;;;;;;;;;;5060189;28;20185;-65
2022/08/13 04:47:52;;;;;;;2.92;2.30;;;;;;;;;;5057862;28;20303;-65
2022/08/13 04:50:17;;;;;;;3.75;2.80;;;;;;;;;;5052301;28;20523;-65
2022/08/13 04:52:42;;;;;;;4.50;2.55;;;;;;;;;;5056594;28;20180;-65
2022/08/13 04:55:11;;;;;;;4.88;2.85;;;;;;;;;;5067198;28;20185;-65
2022/08/13 04:57:37;;;;;;;4.45;2.45;;;;;;;;;;5053835;28;20265;-65
2022/08/13 05:00:07;;;;;;;5.57;2.80;;;;;;;;;;5052025;28;20197;-65
2022/08/13 05:02:39;;;;;;;4.72;2.42;;;;;;;;;;5052481;28;20189;-65
2022/08/13 05:05:06;;;;;;;3.45;2.50;;;;;;;;;;5066103;28;20195;-65
2022/08/13 05:07:31;;;;;;;11.32;2.90;;;;;;;;;;5054523;28;20272;-65
2022/08/13 05:09:57;;;;;;;4.47;2.40;;;;;;;;;;5056752;28;20279;-65
2022/08/13 05:12:23;;;;;;;4.57;2.85;;;;;;;;;;5057196;28;20254;-65
2022/08/13 05:14:48;;;;;;;2.72;2.42;;;;;;;;;;5060881;28;20568;-65
2022/08/13 05:17:14;;;;;;;6.22;2.40;;;;;;;;;;5065546;28;20706;-65
2022/08/13 05:19:39;;;;;;;4.45;2.70;;;;;;;;;;5068120;28;20291;-65
2022/08/13 05:22:06;;;;;;;6.72;2.78;;;;;;;;;;5055181;28;20323;-65
2022/08/13 05:24:32;;;;;;;3.85;2.80;;;;;;;;;;5068335;28;20185;-65
2022/08/13 05:26:58;;;;;;;4.28;2.90;;;;;;;;;;5061389;28;20229;-65
2022/08/13 05:29:23;;;;;;;4.45;2.72;;;;;;;;;;5067599;28;20243;-65
2022/08/13 05:31:49;;;;;;;3.58;2.83;;;;;;;;;;5063483;28;20262;-65
2022/08/13 05:34:15;;;;;;;8.15;2.63;;;;;;;;;;5051926;28;20490;-65
2022/08/13 05:36:42;;;;;;;6.53;2.80;;;;;;;;;;5051544;28;20184;-65
2022/08/13 05:39:08;;;;;;;5.05;2.60;;;;;;;;;;5051935;28;20673;-65
2022/08/13 05:41:33;;;;;;;4.40;2.83;;;;;;;;;;5051023;28;20190;-65
2022/08/13 05:44:00;;;;;;;4.97;2.88;;;;;;;;;;5062479;28;20181;-65
2022/08/13 05:46:25;;;;;;;3.60;3.30;;;;;;;;;;5070099;28;20216;-65
2022/08/13 05:48:57;;;;;;;5.75;2.92;;;;;;;;;;5071935;28;20540;-65
2022/08/13 05:51:33;;;;;;;4.15;2.85;;;;;;;;;;5059827;28;20193;-65
2022/08/13 05:54:00;;;;;;;5.72;3.13;;;;;;;;;;5059023;28;20204;-65
2022/08/13 05:56:36;;;;;;;6.18;2.85;;;;;;;;;;5057539;28;20190;-65
2022/08/13 05:59:05;;;;;;;3.88;2.92;;;;;;;;;;5063875;28;20177;-65
2022/08/13 06:04:19;;;;;;;9.27;3.25;;;;;;;;;;5062989;28;20243;-66
2022/08/13 06:06:45;;;;;;;9.38;3.60;;;;;;;;;;5053810;28;20220;-65
2022/08/13 06:09:10;;;;;;;4.30;3.50;;;;;;;;;;5078250;28;20185;-65
2022/08/13 06:11:40;;;;;;;8.98;3.25;;;;;;;;;;5057075;28;20197;-65
2022/08/13 06:14:06;;;;;;;4.80;2.92;;;;;;;;;;5054310;28;20234;-65
2022/08/13 06:16:33;;;;;;;8.20;2.92;;;;;;;;;;5069304;28;20193;-65
2022/08/13 06:18:59;;;;;;;6.18;3.38;;;;;;;;;;5051782;28;20252;-65
2022/08/13 06:21:25;;;;;;;5.13;3.03;;;;;;;;;;5054691;28;20255;-66
2022/08/13 06:23:52;;;;;;;5.30;3.15;;;;;;;;;;5061792;28;20231;-66
2022/08/13 06:26:20;;;;;;;4.25;2.97;;;;;;;;;;5068278;28;20216;-65
2022/08/13 06:28:47;;;;;;;6.32;3.00;;;;;;;;;;5071300;28;20189;-65
2022/08/13 06:31:16;;;;;;;4.47;2.40;;;;;;;;;;5069083;28;20261;-65
2022/08/13 06:33:43;;;;;;;2.80;2.50;;;;;;;;;;5057959;28;20208;-65
2022/08/13 06:36:14;;;;;;;7.07;2.90;;;;;;;;;;5065487;28;20671;-66
2022/08/13 06:38:47;;;;;;;3.17;2.78;;;;;;;;;;5062725;28;20622;-66
2022/08/13 06:41:13;;;;;;;3.83;2.60;;;;;;;;;;5065374;28;20220;-66
2022/08/13 06:43:41;;;;;;;5.43;3.30;;;;;;;;;;5063758;28;20213;-65
2022/08/13 06:46:08;;;;;;;5.15;2.55;;;;;;;;;;5063410;28;20283;-65
2022/08/13 06:48:34;;;;;;;5.18;2.83;;;;;;;;;;5051535;28;20288;-65
2022/08/13 06:51:01;;;;;;;4.18;2.40;;;;;;;;;;5058855;28;20185;-65
2022/08/13 06:53:27;;;;;;;6.28;2.53;;;;;;;;;;5052434;28;20177;-65
2022/08/13 06:55:53;;;;;;;5.47;2.47;;;;;;;;;;5049942;28;20645;-65
2022/08/13 06:58:27;;;;;;;4.43;2.40;;;;;;;;;;5065843;28;20538;-65
2022/08/13 07:00:55;;;;;;;3.33;2.60;;;;;;;;;;5070609;28;20184;-65
2022/08/13 07:03:25;;;;;;;5.22;1.85;;;;;;;;;;5067554;28;20177;-65
2022/08/13 07:05:50;;;;;;;5.15;1.90;;;;;;;;;;5050022;28;20238;-65
2022/08/13 07:08:17;;;;;;;2.42;1.80;;;;;;;;;;5073236;28;20699;-65
2022/08/13 07:10:50;;;;;;;2.47;1.63;;;;;;;;;;5055913;28;20173;-65
2022/08/13 07:13:16;;;;;;;2.95;1.77;;;;;;;;;;5070350;28;20283;-66
2022/08/13 07:15:45;;;;;;;3.75;1.83;;;;;;;;;;5050424;28;20648;-65
2022/08/13 07:18:11;;;;;;;2.47;2.03;;;;;;;;;;5061954;28;20181;-66
2022/08/13 07:20:37;;;;;;;2.95;1.70;;;;;;;;;;5051924;28;20184;-65
2022/08/13 07:23:03;;;;;;;4.07;2.10;;;;;;;;;;5055000;28;20904;-65
2022/08/13 07:25:30;;;;;;;4.22;1.90;;;;;;;;;;5061705;28;20580;-66
2022/08/13 07:27:57;;;;;;;3.65;1.65;;;;;;;;;;5069065;28;20224;-65
2022/08/13 07:30:22;;;;;;;6.07;1.83;;;;;;;;;;5059933;28;20201;-66
2022/08/13 07:32:50;;;;;;;2.17;1.90;;;;;;;;;;5061748;28;20283;-66
2022/08/13 07:35:16;;;;;;;6.75;2.08;;;;;;;;;;5069816;28;20180;-66
2022/08/13 07:37:41;;;;;;;4.60;1.50;;;;;;;;;;5054176;28;20300;-66
2022/08/13 07:40:10;;;;;;;4.00;1.90;;;;;;;;;;5049682;28;20227;-66
2022/08/13 07:42:41;;;;;;;4.00;1.80;;;;;;;;;;5062410;28;20199;-65
2022/08/13 07:45:08;;;;;;;4.07;1.67;;;;;;;;;;5059153;28;20197;-66
2022/08/13 07:47:35;;;;;;;3.35;1.70;;;;;;;;;;5068695;28;20209;-64
2022/08/13 07:50:05;;;;;;;2.47;1.50;;;;;;;;;;5068899;28;20259;-65
2022/08/13 07:52:31;;;;;;;5.05;2.05;;;;;;;;;;5049701;28;20191;-65
2022/08/13 07:54:58;;;;;;;2.95;1.58;;;;;;;;;;5062647;28;20176;-65
2022/08/13 07:57:27;;;;;;;3.13;1.45;;;;;;;;;;5057768;28;20238;-65
2022/08/13 07:59:53;;;;;;;6.28;1.70;;;;;;;;;;5050523;28;20273;-66
2022/08/13 08:02:18;;;;;;;2.40;1.45;;;;;;;;;;5049907;28;20721;-65
2022/08/13 08:04:44;;;;;;;1.85;1.50;;;;;;;;;;5061664;28;20219;-66
2022/08/13 08:07:12;;;;;;;2.33;1.40;;;;;;;;;;5059010;28;20551;-66
2022/08/13 08:09:37;;;;;;;3.60;1.23;;;;;;;;;;5066614;28;20248;-66
2022/08/13 08:14:50;;;;;;;2.08;1.10;;;;;;;;;;5057414;28;20577;-65
2022/08/13 08:17:17;;;;;;;2.50;1.52;;;;;;;;;;5047505;28;20173;-64
2022/08/13 08:19:43;;;;;;;4.70;1.60;;;;;;;;;;5063062;28;20183;-65
2022/08/13 08:22:11;;;;;;;5.15;1.33;;;;;;;;;;5053730;28;20815;-65
2022/08/13 08:24:37;;;;;;;2.22;1.30;;;;;;;;;;5056405;28;20250;-65
2022/08/13 08:27:05;;;;;;;2.67;1.60;;;;;;;;;;5057999;28;20236;-65
2022/08/13 08:29:33;;;;;;;2.28;1.55;;;;;;;;;;5062398;28;20208;-66
2022/08/13 08:32:07;;;;;;;1.48;1.30;;;;;;;;;;5049260;28;20193;-66
2022/08/13 08:34:34;;;;;;;4.53;1.48;;;;;;;;;;5061803;28;20219;-65
2022/08/13 08:36:59;;;;;;;8.13;2.45;;;;;;;;;;5056750;28;20641;-65
2022/08/13 08:42:35;;;;;;;1.25;1.20;;;;;;;;;;5065867;28;20203;-65
2022/08/13 08:45:02;;;;;;;1.40;1.30;;;;;;;;;;5056953;28;20231;-64
2022/08/13 08:47:29;;;;;;;3.83;1.38;;;;;;;;;;5059171;28;20201;-65
2022/08/13 08:49:59;;;;;;;3.92;1.20;;;;;;;;;;5053082;28;20184;-65
2022/08/13 08:55:11;;;;;;;1.30;1.20;;;;;;;;;;5048022;28;20192;-64
2022/08/13 08:57:39;;;;;;;3.08;1.42;;;;;;;;;;5048385;28;20196;-65
2022/08/13 09:00:06;;;;;;;3.22;1.40;;;;;;;;;;5050879;28;20653;-65
2022/08/13 09:02:33;;;;;;;2.30;1.40;;;;;;;;;;5059738;28;20210;-66
2022/08/13 09:05:01;;;;;;;2.35;1.20;;;;;;;;;;5051629;28;20744;-64
2022/08/13 09:07:29;;;;;;;3.83;1.60;;;;;;;;;;5058856;28;20213;-65
2022/08/13 09:09:56;;;;;;;2.80;1.60;;;;;;;;;;5074325;28;20284;-65
2022/08/13 09:12:25;;;;;;;3.70;1.60;;;;;;;;;;5068086;28;20605;-66
2022/08/13 09:14:51;;;;;;;5.18;1.50;;;;;;;;;;5064088;28;20184;-66
2022/08/13 09:17:18;;;;;;;1.38;1.25;;;;;;;;;;5051795;28;20209;-64
2022/08/13 09:19:44;;;;;;;5.22;1.73;;;;;;;;;;5058318;28;20194;-65
2022/08/13 09:22:09;;;;;;;2.22;1.30;;;;;;;;;;5053398;28;20200;-66
2022/08/13 09:24:39;;;;;;;1.75;1.60;;;;;;;;;;5053844;28;20180;-65
2022/08/13 09:27:06;;;;;;;2.17;1.27;;;;;;;;;;5058299;28;20229;-65
2022/08/13 09:29:31;;;;;;;2.38;1.50;;;;;;;;;;5065900;28;20263;-66
2022/08/13 09:31:58;;;;;;;1.55;1.20;;;;;;;;;;5070493;28;20595;-65
2022/08/13 09:34:25;;;;;;;2.72;1.40;;;;;;;;;;5056570;28;20177;-66
2022/08/13 09:36:55;;;;;;;2.28;1.42;;;;;;;;;;5066728;28;20184;-65
2022/08/13 09:39:34;;;;;;;3.13;1.40;;;;;;;;;;5053910;28;20181;-65
2022/08/13 09:42:05;;;;;;;1.30;1.20;;;;;;;;;;5063580;28;20194;-66
2022/08/13 09:44:30;;;;;;;1.88;1.45;;;;;;;;;;5060949;28;20184;-66
2022/08/13 09:46:57;;;;;;;4.50;1.60;;;;;;;;;;5052862;28;20209;-66
2022/08/13 09:49:23;;;;;;;1.92;1.30;;;;;;;;;;5063209;28;20217;-65
2022/08/13 09:51:48;;;;;;;3.72;1.60;;;;;;;;;;5059314;28;20184;-64
2022/08/13 09:54:14;;;;;;;3.78;1.35;;;;;;;;;;5062847;28;20530;-64
2022/08/13 09:56:39;;;;;;;4.13;1.48;;;;;;;;;;5065052;28;20185;-64
2022/08/13 09:59:10;;;;;;;3.75;1.77;;;;;;;;;;5060393;28;20188;-65
2022/08/13 10:01:38;;;;;;;2.63;1.67;;;;;;;;;;5057269;28;20263;-66
2022/08/13 10:04:04;;;;;;;1.27;1.17;;;;;;;;;;5051165;28;20193;-65
2022/08/13 10:06:31;;;;;;;1.95;1.60;;;;;;;;;;5054651;28;20205;-64
2022/08/13 10:08:59;;;;;;;3.72;1.50;;;;;;;;;;5054315;28;20185;-64
2022/08/13 10:11:24;;;;;;;2.20;1.50;;;;;;;;;;5056872;28;20653;-66
2022/08/13 10:13:49;;;;;;;2.90;1.45;;;;;;;;;;5052139;28;20188;-65
2022/08/13 10:16:15;;;;;;;3.80;1.88;;;;;;;;;;5071050;28;20267;-65
2022/08/13 10:18:41;;;;;;;1.85;1.50;;;;;;;;;;5069284;28;20199;-65
2022/08/13 10:21:07;;;;;;;4.50;1.90;;;;;;;;;;5051754;28;20276;-67
2022/08/13 10:23:33;;;;;;;2.30;1.30;;;;;;;;;;5059600;28;20279;-65
2022/08/13 10:25:59;;;;;;;3.33;1.35;;;;;;;;;;5070513;28;20276;-65
2022/08/13 10:28:27;;;;;;;3.13;1.33;;;;;;;;;;5062664;28;20233;-66
2022/08/13 10:30:54;;;;;;;4.20;1.20;;;;;;;;;;5063705;28;20184;-65
2022/08/13 10:33:20;;;;;;;2.50;1.88;;;;;;;;;;5057197;28;20585;-64
2022/08/13 10:35:55;;;;;;;2.55;1.15;;;;;;;;;;5071277;28;20234;-65
2022/08/13 10:38:25;;;;;;;2.33;1.33;;;;;;;;;;5056791;28;20229;-65
2022/08/13 10:40:50;;;;;;;3.95;1.38;;;;;;;;;;5058634;28;20185;-64
2022/08/13 10:43:16;;;;;;;1.95;1.52;;;;;;;;;;5064505;28;20189;-64
2022/08/13 10:45:42;;;;;;;5.55;1.52;;;;;;;;;;5051068;28;20186;-64
2022/08/13 10:48:11;;;;;;;4.75;1.40;;;;;;;;;;5050049;28;20209;-65
2022/08/13 10:50:37;;;;;;;3.63;1.45;;;;;;;;;;5054574;28;20174;-65
2022/08/13 10:53:03;;;;;;;8.52;1.88;;;;;;;;;;5063502;28;20508;-67
2022/08/13 10:55:29;;;;;;;2.38;1.55;;;;;;;;;;5052846;28;20375;-65
2022/08/13 10:57:54;;;;;;;1.50;1.40;;;;;;;;;;5062894;28;20449;-64
2022/08/13 11:00:20;;;;;;;2.33;1.30;;;;;;;;;;5050625;28;20189;-66
2022/08/13 11:02:49;;;;;;;4.43;1.50;;;;;;;;;;5050477;28;20174;-67
2022/08/13 11:05:16;;;;;;;1.38;1.27;;;;;;;;;;5053253;28;20190;-66
2022/08/13 11:07:45;;;;;;;2.13;1.50;;;;;;;;;;5064302;28;20208;-68
2022/08/13 11:10:11;;;;;;;2.20;1.25;;;;;;;;;;5060468;28;20181;-65
2022/08/13 11:12:37;;;;;;;3.20;1.30;;;;;;;;;;5069773;28;20176;-66
2022/08/13 11:15:06;;;;;;;1.58;1.23;;;;;;;;;;5056618;28;20605;-64
2022/08/13 11:17:32;;;;;;;2.13;1.35;;;;;;;;;;5056302;28;20169;-64
2022/08/13 11:20:02;;;;;;;1.60;1.50;;;;;;;;;;5070679;28;20198;-66
2022/08/13 11:22:28;;;;;;;1.45;1.30;;;;;;;;;;5050976;28;20264;-64
2022/08/13 11:24:59;;;;;;;3.70;1.60;;;;;;;;;;5056908;28;20215;-64
2022/08/13 11:27:24;;;;;;;2.03;1.27;;;;;;;;;;5069272;28;20256;-67
2022/08/13 11:29:50;;;;;;;3.17;1.40;;;;;;;;;;5057616;28;20588;-66
2022/08/13 11:32:15;;;;;;;1.90;1.35;;;;;;;;;;5068825;28;20211;-67
2022/08/13 11:34:40;;;;;;;3.40;1.40;;;;;;;;;;5068901;28;20181;-66
2022/08/13 11:37:06;;;;;;;1.90;1.30;;;;;;;;;;5060298;28;20174;-74
2022/08/13 11:39:31;;;;;;;2.08;1.55;;;;;;;;;;5064959;28;20191;-67
2022/08/13 11:41:56;;;;;;;1.45;1.35;;;;;;;;;;5060026;28;20196;-68
2022/08/13 11:44:22;;;;;;;2.47;1.48;;;;;;;;;;5063478;28;20184;-67
2022/08/13 11:46:47;;;;;;;2.70;1.48;;;;;;;;;;5054770;28;20273;-65
2022/08/13 11:49:12;;;;;;;1.88;1.77;;;;;;;;;;5069449;28;20213;-71
2022/08/13 11:51:38;;;;;;;2.33;1.52;;;;;;;;;;5058038;28;20184;-66
2022/08/13 11:54:04;;;;;;;2.65;1.70;;;;;;;;;;5060022;28;20185;-65
2022/08/13 11:56:29;;;;;;;3.83;1.35;;;;;;;;;;5049105;28;20690;-65
2022/08/13 11:58:55;;;;;;;3.13;2.08;;;;;;;;;;5062846;28;20743;-64
2022/08/13 12:01:22;;;;;;;2.05;1.73;;;;;;;;;;5049291;28;20191;-64
2022/08/13 12:03:47;;;;;;;2.25;1.38;;;;;;;;;;5054390;28;20210;-64
2022/08/13 12:06:13;;;;;;;2.22;1.70;;;;;;;;;;5061948;28;20185;-64
2022/08/13 12:08:39;;;;;;;1.83;1.50;;;;;;;;;;5056664;28;20523;-67
2022/08/13 12:11:04;;;;;;;1.70;1.60;;;;;;;;;;5069635;28;20206;-64
2022/08/13 12:13:29;;;;;;;2.17;1.50;;;;;;;;;;5054350;28;20201;-64
2022/08/13 12:15:55;;;;;;;1.60;1.50;;;;;;;;;;5062255;28;20239;-64
2022/08/13 12:18:21;;;;;;;2.45;1.52;;;;;;;;;;5049111;28;20562;-67
2022/08/13 12:20:47;;;;;;;1.70;1.60;;;;;;;;;;5063025;28;20737;-65
2022/08/13 12:23:12;;;;;;;3.95;1.67;;;;;;;;;;5059677;28;20188;-64
2022/08/13 12:25:38;;;;;;;2.67;1.83;;;;;;;;;;5063056;28;20189;-64
2022/08/13 12:28:24;;;;;;;1.80;1.67;;;;;;;;;;5053731;28;20471;-65
2022/08/13 12:31:07;;;;;;;3.47;1.70;;;;;;;;;;5055414;28;20177;-64
2022/08/13 12:33:35;;;;;;;2.38;1.63;;;;;;;;;;5059359;28;20176;-66
2022/08/13 12:36:01;;;;;;;1.98;1.50;;;;;;;;;;5054265;28;20557;-67
2022/08/13 12:38:27;;;;;;;2.45;1.95;;;;;;;;;;5048983;28;20293;-66
2022/08/13 12:40:53;;;;;;;3.00;1.52;;;;;;;;;;5061004;28;20219;-66
2022/08/13 12:43:18;;;;;;;3.58;1.90;;;;;;;;;;5053806;28;20176;-65
2022/08/13 12:45:44;;;;;;;2.38;1.75;;;;;;;;;;5069241;28;20180;-66
2022/08/13 12:48:12;;;;;;;2.17;1.98;;;;;;;;;;5054637;28;20204;-67
2022/08/13 12:50:40;;;;;;;3.00;1.60;;;;;;;;;;5052539;28;20220;-66
2022/08/13 12:53:06;;;;;;;3.75;2.17;;;;;;;;;;5049120;28;20288;-65
2022/08/13 12:55:33;;;;;;;3.78;1.77;;;;;;;;;;5061673;28;20195;-66
2022/08/13 12:58:10;;;;;;;2.22;1.92;;;;;;;;;;5061744;28;20172;-65
2022/08/13 13:00:35;;;;;;;2.03;1.83;;;;;;;;;;5055737;28;20761;-66
2022/08/13 13:03:01;;;;;;;2.17;1.98;;;;;;;;;;5057069;28;20285;-67
2022/08/13 13:05:26;;;;;;;3.22;1.80;;;;;;;;;;5069258;28;20184;-69
2022/08/13 13:07:52;;;;;;;3.42;1.80;;;;;;;;;;5063556;28;20254;-67
2022/08/13 13:10:18;;;;;;;2.13;1.80;;;;;;;;;;5052016;28;20185;-67
2022/08/13 13:12:44;;;;;;;3.38;1.77;;;;;;;;;;5052622;28;20563;-67
2022/08/13 13:15:09;;;;;;;2.95;1.80;;;;;;;;;;5053321;28;20185;-67
2022/08/13 13:17:38;;;;;;;4.30;2.08;;;;;;;;;;5065612;28;20551;-67
2022/08/13 13:20:04;;;;;;;2.50;2.00;;;;;;;;;;5052798;28;20185;-65
2022/08/13 13:22:29;;;;;;;4.80;2.40;;;;;;;;;;5061483;28;20655;-66
2022/08/13 13:24:55;;;;;;;2.00;1.90;;;;;;;;;;5072086;28;20180;-64
2022/08/13 13:27:21;;;;;;;3.92;1.80;;;;;;;;;;5071708;28;20259;-64
2022/08/13 13:29:47;;;;;;;2.92;1.90;;;;;;;;;;5071757;28;20216;-66
2022/08/13 13:32:13;;;;;;;3.13;1.98;;;;;;;;;;5071953;28;20238;-65
2022/08/13 13:34:45;;;;;;;2.53;2.00;;;;;;;;;;5068417;28;20183;-65
2022/08/13 13:37:12;;;;;;;4.07;1.90;;;;;;;;;;5055681;28;20185;-65
2022/08/13 13:39:37;;;;;;;2.80;2.13;;;;;;;;;;5065759;28;20180;-67
2022/08/13 13:42:02;;;;;;;2.53;2.20;;;;;;;;;;5060240;28;20922;-65
2022/08/13 13:44:28;;;;;;;3.70;2.28;;;;;;;;;;5072123;28;20189;-65
2022/08/13 13:46:53;;;;;;;4.00;2.10;;;;;;;;;;5050672;28;20189;-66
2022/08/13 13:49:18;;;;;;;2.70;2.00;;;;;;;;;;5052055;28;20220;-65
2022/08/13 13:51:44;;;;;;;4.22;1.98;;;;;;;;;;5061207;28;20946;-68
2022/08/13 13:54:09;;;;;;;2.60;2.30;;;;;;;;;;5051768;28;20188;-69
2022/08/13 13:56:35;;;;;;;4.15;2.20;;;;;;;;;;5051176;28;20181;-66
2022/08/13 13:59:00;;;;;;;2.20;2.00;;;;;;;;;;5052456;28;20185;-65
2022/08/13 14:01:26;;;;;;;9.02;2.50;;;;;;;;;;5065321;28;20309;-65
2022/08/13 14:03:52;;;;;;;4.70;2.58;;;;;;;;;;5051504;28;20192;-65
2022/08/13 14:06:20;;;;;;;2.60;2.40;;;;;;;;;;5059303;28;20176;-66
2022/08/13 14:08:48;;;;;;;3.97;2.30;;;;;;;;;;5074846;28;20311;-67
2022/08/13 14:11:15;;;;;;;4.20;2.28;;;;;;;;;;5071466;28;20208;-66
2022/08/13 14:13:40;;;;;;;3.17;2.03;;;;;;;;;;5053915;28;20188;-67
2022/08/13 14:16:08;;;;;;;4.68;2.17;;;;;;;;;;5050455;28;20177;-67
2022/08/13 14:18:35;;;;;;;3.97;2.08;;;;;;;;;;5057311;28;20199;-66
2022/08/13 14:21:00;;;;;;;2.35;2.10;;;;;;;;;;5053928;28;20196;-66
2022/08/13 14:23:27;;;;;;;3.20;2.28;;;;;;;;;;5065546;28;20265;-67
2022/08/13 14:25:53;;;;;;;4.03;2.38;;;;;;;;;;5069452;28;20176;-66
2022/08/13 14:28:19;;;;;;;5.30;2.03;;;;;;;;;;5057802;28;20235;-67
2022/08/13 14:30:47;;;;;;;2.65;2.45;;;;;;;;;;5071516;28;20309;-67
2022/08/13 14:33:13;;;;;;;3.67;2.30;;;;;;;;;;5062506;28;20176;-71
2022/08/13 14:35:39;;;;;;;2.72;2.53;;;;;;;;;;5051480;28;20177;-68
2022/08/13 14:38:06;;;;;;;4.60;2.50;;;;;;;;;;5054162;28;20696;-68
2022/08/13 14:40:31;;;;;;;2.63;2.22;;;;;;;;;;5065496;28;20176;-67
2022/08/13 14:43:00;;;;;;;2.63;2.38;;;;;;;;;;5067494;28;20188;-67
2022/08/13 14:45:42;;;;;;;3.88;2.50;;;;;;;;;;5069297;28;20184;-67
2022/08/13 14:48:19;;;;;;;3.53;2.40;;;;;;;;;;5053608;28;20279;-67
2022/08/13 14:50:50;;;;;;;2.60;2.40;;;;;;;;;;5054030;28;20507;-67
2022/08/13 14:53:16;;;;;;;3.13;2.35;;;;;;;;;;5054653;28;20208;-66
2022/08/13 14:55:44;;;;;;;2.97;2.60;;;;;;;;;;5058685;28;20184;-67
2022/08/13 14:58:12;;;;;;;7.68;2.80;;;;;;;;;;5055567;28;20173;-66
2022/08/13 15:00:38;;;;;;;6.55;2.65;;;;;;;;;;5070306;28;20551;-66
2022/08/13 15:03:08;;;;;;;8.02;2.63;;;;;;;;;;5057405;28;20264;-65